sensor_id;sensor_type;location;lat;lon;timestamp;P1;durP1;ratioP1;P2;durP2;ratioP2
51270;SDS011;37744;50.960;4.136;2022-09-03T00:07:35;4.25;;;3.65;;
51270;SDS011;37744;50.960;4.136;2022-09-03T00:10:21;4.07;;;3.47;;
51270;SDS011;37744;50.960;4.136;2022-09-03T00:12:53;4.22;;;3.83;;
51270;SDS011;37744;50.960;4.136;2022-09-03T00:15:24;7.78;;;4.25;;
51270;SDS011;37744;50.960;4.136;2022-09-03T00:20:39;6.10;;;4.35;;
51270;SDS011;37744;50.960;4.136;2022-09-03T00:23:13;4.85;;;4.35;;
51270;SDS011;37744;50.960;4.136;2022-09-03T00:28:14;5.18;;;4.50;;
51270;SDS011;37744;50.960;4.136;2022-09-03T00:30:44;4.72;;;4.32;;
51270;SDS011;37744;50.960;4.136;2022-09-03T00:33:22;4.53;;;3.90;;
51270;SDS011;37744;50.960;4.136;2022-09-03T00:38:28;4.65;;;4.18;;
51270;SDS011;37744;50.960;4.136;2022-09-03T00:41:03;6.18;;;4.53;;
51270;SDS011;37744;50.960;4.136;2022-09-03T00:43:54;5.13;;;4.20;;
51270;SDS011;37744;50.960;4.136;2022-09-03T00:47:00;5.10;;;4.20;;
51270;SDS011;37744;50.960;4.136;2022-09-03T00:49:38;4.95;;;4.07;;
51270;SDS011;37744;50.960;4.136;2022-09-03T00:52:38;5.00;;;4.22;;
51270;SDS011;37744;50.960;4.136;2022-09-03T01:00:33;5.72;;;4.47;;
51270;SDS011;37744;50.960;4.136;2022-09-03T01:05:41;5.75;;;4.95;;
51270;SDS011;37744;50.960;4.136;2022-09-03T01:08:17;5.70;;;4.68;;
51270;SDS011;37744;50.960;4.136;2022-09-03T01:27:02;4.88;;;4.30;;
51270;SDS011;37744;50.960;4.136;2022-09-03T01:29:53;4.43;;;4.03;;
51270;SDS011;37744;50.960;4.136;2022-09-03T01:33:00;5.30;;;4.57;;
51270;SDS011;37744;50.960;4.136;2022-09-03T01:46:46;5.18;;;4.53;;
51270;SDS011;37744;50.960;4.136;2022-09-03T01:54:47;5.43;;;4.90;;
51270;SDS011;37744;50.960;4.136;2022-09-03T01:57:26;5.88;;;5.20;;
51270;SDS011;37744;50.960;4.136;2022-09-03T02:02:40;5.38;;;4.88;;
51270;SDS011;37744;50.960;4.136;2022-09-03T02:05:12;6.70;;;5.10;;
51270;SDS011;37744;50.960;4.136;2022-09-03T02:10:05;6.03;;;4.80;;
51270;SDS011;37744;50.960;4.136;2022-09-03T02:12:33;5.72;;;5.03;;
51270;SDS011;37744;50.960;4.136;2022-09-03T02:15:03;6.70;;;5.30;;
51270;SDS011;37744;50.960;4.136;2022-09-03T02:17:32;5.05;;;4.55;;
51270;SDS011;37744;50.960;4.136;2022-09-03T02:20:00;6.90;;;5.32;;
51270;SDS011;37744;50.960;4.136;2022-09-03T02:22:30;5.38;;;4.88;;
51270;SDS011;37744;50.960;4.136;2022-09-03T02:24:56;5.75;;;4.72;;
51270;SDS011;37744;50.960;4.136;2022-09-03T02:27:22;5.80;;;5.10;;
51270;SDS011;37744;50.960;4.136;2022-09-03T02:29:47;6.60;;;5.28;;
51270;SDS011;37744;50.960;4.136;2022-09-03T02:32:13;6.25;;;5.65;;
51270;SDS011;37744;50.960;4.136;2022-09-03T02:34:40;6.43;;;5.72;;
51270;SDS011;37744;50.960;4.136;2022-09-03T02:37:13;7.18;;;5.40;;
51270;SDS011;37744;50.960;4.136;2022-09-03T02:39:40;6.10;;;5.35;;
51270;SDS011;37744;50.960;4.136;2022-09-03T02:42:06;7.47;;;5.75;;
51270;SDS011;37744;50.960;4.136;2022-09-03T02:44:34;5.97;;;4.85;;
51270;SDS011;37744;50.960;4.136;2022-09-03T02:47:07;6.43;;;5.07;;
51270;SDS011;37744;50.960;4.136;2022-09-03T02:49:33;6.82;;;5.10;;
51270;SDS011;37744;50.960;4.136;2022-09-03T02:51:59;6.03;;;5.43;;
51270;SDS011;37744;50.960;4.136;2022-09-03T02:54:29;6.97;;;4.60;;
51270;SDS011;37744;50.960;4.136;2022-09-03T02:56:57;6.57;;;5.25;;
51270;SDS011;37744;50.960;4.136;2022-09-03T02:59:24;6.53;;;4.90;;
51270;SDS011;37744;50.960;4.136;2022-09-03T03:01:52;5.30;;;4.80;;
51270;SDS011;37744;50.960;4.136;2022-09-03T03:04:18;5.97;;;5.38;;
51270;SDS011;37744;50.960;4.136;2022-09-03T03:06:43;7.50;;;5.20;;
51270;SDS011;37744;50.960;4.136;2022-09-03T03:09:09;6.38;;;5.75;;
51270;SDS011;37744;50.960;4.136;2022-09-03T03:11:34;7.45;;;5.10;;
51270;SDS011;37744;50.960;4.136;2022-09-03T03:14:01;6.35;;;5.35;;
51270;SDS011;37744;50.960;4.136;2022-09-03T03:16:27;6.95;;;5.57;;
51270;SDS011;37744;50.960;4.136;2022-09-03T03:18:54;5.82;;;5.20;;
51270;SDS011;37744;50.960;4.136;2022-09-03T03:21:20;6.03;;;5.43;;
51270;SDS011;37744;50.960;4.136;2022-09-03T03:23:45;6.13;;;5.25;;
51270;SDS011;37744;50.960;4.136;2022-09-03T03:26:12;6.30;;;4.55;;
51270;SDS011;37744;50.960;4.136;2022-09-03T03:28:39;6.00;;;5.22;;
51270;SDS011;37744;50.960;4.136;2022-09-03T03:33:36;8.85;;;6.00;;
51270;SDS011;37744;50.960;4.136;2022-09-03T03:36:06;7.68;;;5.88;;
51270;SDS011;37744;50.960;4.136;2022-09-03T03:38:32;7.00;;;6.25;;
51270;SDS011;37744;50.960;4.136;2022-09-03T03:40:58;7.18;;;6.25;;
51270;SDS011;37744;50.960;4.136;2022-09-03T03:43:24;10.10;;;7.03;;
51270;SDS011;37744;50.960;4.136;2022-09-03T03:45:56;9.02;;;7.07;;
51270;SDS011;37744;50.960;4.136;2022-09-03T03:48:22;9.23;;;7.70;;
51270;SDS011;37744;50.960;4.136;2022-09-03T03:50:48;11.73;;;8.18;;
51270;SDS011;37744;50.960;4.136;2022-09-03T03:53:14;9.25;;;7.30;;
51270;SDS011;37744;50.960;4.136;2022-09-03T03:55:39;9.45;;;8.18;;
51270;SDS011;37744;50.960;4.136;2022-09-03T03:58:06;10.20;;;7.93;;
51270;SDS011;37744;50.960;4.136;2022-09-03T04:00:31;9.95;;;7.97;;
51270;SDS011;37744;50.960;4.136;2022-09-03T04:03:01;12.15;;;8.85;;
51270;SDS011;37744;50.960;4.136;2022-09-03T04:05:27;10.75;;;8.45;;
51270;SDS011;37744;50.960;4.136;2022-09-03T04:07:52;10.98;;;8.43;;
51270;SDS011;37744;50.960;4.136;2022-09-03T04:10:18;10.07;;;6.95;;
51270;SDS011;37744;50.960;4.136;2022-09-03T04:12:43;9.40;;;7.40;;
51270;SDS011;37744;50.960;4.136;2022-09-03T04:15:09;10.27;;;8.75;;
51270;SDS011;37744;50.960;4.136;2022-09-03T04:17:34;10.30;;;7.53;;
51270;SDS011;37744;50.960;4.136;2022-09-03T04:20:01;8.75;;;7.13;;
51270;SDS011;37744;50.960;4.136;2022-09-03T04:22:27;9.70;;;7.95;;
51270;SDS011;37744;50.960;4.136;2022-09-03T04:24:53;10.25;;;7.47;;
51270;SDS011;37744;50.960;4.136;2022-09-03T04:27:18;9.02;;;7.78;;
51270;SDS011;37744;50.960;4.136;2022-09-03T04:29:43;10.20;;;6.65;;
51270;SDS011;37744;50.960;4.136;2022-09-03T04:32:09;11.70;;;7.97;;
51270;SDS011;37744;50.960;4.136;2022-09-03T04:34:52;9.23;;;7.22;;
51270;SDS011;37744;50.960;4.136;2022-09-03T04:37:18;10.68;;;8.25;;
51270;SDS011;37744;50.960;4.136;2022-09-03T04:39:44;12.48;;;8.02;;
51270;SDS011;37744;50.960;4.136;2022-09-03T04:42:10;11.50;;;8.13;;
51270;SDS011;37744;50.960;4.136;2022-09-03T04:44:35;10.63;;;7.63;;
51270;SDS011;37744;50.960;4.136;2022-09-03T04:47:02;11.30;;;7.90;;
51270;SDS011;37744;50.960;4.136;2022-09-03T04:49:31;7.97;;;6.95;;
51270;SDS011;37744;50.960;4.136;2022-09-03T04:51:56;10.52;;;7.32;;
51270;SDS011;37744;50.960;4.136;2022-09-03T04:54:21;7.60;;;6.60;;
51270;SDS011;37744;50.960;4.136;2022-09-03T04:56:47;7.22;;;6.53;;
51270;SDS011;37744;50.960;4.136;2022-09-03T04:59:12;8.15;;;6.70;;
51270;SDS011;37744;50.960;4.136;2022-09-03T05:01:38;7.38;;;6.28;;
51270;SDS011;37744;50.960;4.136;2022-09-03T05:04:04;5.18;;;4.68;;
51270;SDS011;37744;50.960;4.136;2022-09-03T05:06:31;7.43;;;5.63;;
51270;SDS011;37744;50.960;4.136;2022-09-03T05:08:58;5.95;;;5.35;;
51270;SDS011;37744;50.960;4.136;2022-09-03T05:11:24;5.95;;;5.32;;
51270;SDS011;37744;50.960;4.136;2022-09-03T05:13:51;5.50;;;5.00;;
51270;SDS011;37744;50.960;4.136;2022-09-03T05:16:18;6.00;;;4.88;;
51270;SDS011;37744;50.960;4.136;2022-09-03T05:18:45;5.75;;;4.95;;
51270;SDS011;37744;50.960;4.136;2022-09-03T05:21:12;5.70;;;4.97;;
51270;SDS011;37744;50.960;4.136;2022-09-03T05:23:43;6.95;;;5.65;;
51270;SDS011;37744;50.960;4.136;2022-09-03T05:26:11;6.18;;;5.57;;
51270;SDS011;37744;50.960;4.136;2022-09-03T05:28:39;6.30;;;4.97;;
51270;SDS011;37744;50.960;4.136;2022-09-03T05:31:10;6.00;;;5.40;;
51270;SDS011;37744;50.960;4.136;2022-09-03T05:33:38;8.07;;;5.70;;
51270;SDS011;37744;50.960;4.136;2022-09-03T05:36:09;7.25;;;5.35;;
51270;SDS011;37744;50.960;4.136;2022-09-03T05:38:37;6.43;;;5.30;;
51270;SDS011;37744;50.960;4.136;2022-09-03T05:41:04;7.43;;;5.43;;
51270;SDS011;37744;50.960;4.136;2022-09-03T05:43:31;9.60;;;5.60;;
51270;SDS011;37744;50.960;4.136;2022-09-03T05:45:57;6.88;;;5.30;;
51270;SDS011;37744;50.960;4.136;2022-09-03T05:48:26;6.35;;;5.75;;
51270;SDS011;37744;50.960;4.136;2022-09-03T05:50:59;7.75;;;5.53;;
51270;SDS011;37744;50.960;4.136;2022-09-03T05:53:26;7.03;;;5.22;;
51270;SDS011;37744;50.960;4.136;2022-09-03T05:55:58;7.68;;;5.57;;
51270;SDS011;37744;50.960;4.136;2022-09-03T05:58:33;8.70;;;5.88;;
51270;SDS011;37744;50.960;4.136;2022-09-03T06:01:08;10.00;;;5.70;;
51270;SDS011;37744;50.960;4.136;2022-09-03T06:03:34;8.02;;;5.97;;
51270;SDS011;37744;50.960;4.136;2022-09-03T06:06:01;6.20;;;5.20;;
51270;SDS011;37744;50.960;4.136;2022-09-03T06:08:28;6.30;;;5.70;;
51270;SDS011;37744;50.960;4.136;2022-09-03T06:10:57;6.35;;;5.75;;
51270;SDS011;37744;50.960;4.136;2022-09-03T06:13:28;7.03;;;5.28;;
51270;SDS011;37744;50.960;4.136;2022-09-03T06:15:57;6.68;;;5.53;;
51270;SDS011;37744;50.960;4.136;2022-09-03T06:18:24;7.38;;;6.03;;
51270;SDS011;37744;50.960;4.136;2022-09-03T06:20:54;7.93;;;5.82;;
51270;SDS011;37744;50.960;4.136;2022-09-03T06:23:20;7.10;;;6.25;;
51270;SDS011;37744;50.960;4.136;2022-09-03T06:25:46;6.90;;;6.18;;
51270;SDS011;37744;50.960;4.136;2022-09-03T06:28:11;6.50;;;5.85;;
51270;SDS011;37744;50.960;4.136;2022-09-03T06:30:37;6.72;;;6.03;;
51270;SDS011;37744;50.960;4.136;2022-09-03T06:33:02;7.03;;;6.32;;
51270;SDS011;37744;50.960;4.136;2022-09-03T06:35:27;8.98;;;7.00;;
51270;SDS011;37744;50.960;4.136;2022-09-03T06:37:53;7.32;;;6.20;;
51270;SDS011;37744;50.960;4.136;2022-09-03T06:40:18;9.95;;;6.22;;
51270;SDS011;37744;50.960;4.136;2022-09-03T06:42:54;7.93;;;5.75;;
51270;SDS011;37744;50.960;4.136;2022-09-03T06:45:23;8.35;;;6.20;;
51270;SDS011;37744;50.960;4.136;2022-09-03T06:47:48;9.18;;;6.13;;
51270;SDS011;37744;50.960;4.136;2022-09-03T06:50:14;9.65;;;7.03;;
51270;SDS011;37744;50.960;4.136;2022-09-03T06:52:39;6.72;;;5.47;;
51270;SDS011;37744;50.960;4.136;2022-09-03T06:55:04;7.78;;;5.97;;
51270;SDS011;37744;50.960;4.136;2022-09-03T06:57:30;6.55;;;5.50;;
51270;SDS011;37744;50.960;4.136;2022-09-03T06:59:55;6.20;;;5.57;;
51270;SDS011;37744;50.960;4.136;2022-09-03T07:02:21;7.97;;;5.50;;
51270;SDS011;37744;50.960;4.136;2022-09-03T07:04:47;9.65;;;5.53;;
51270;SDS011;37744;50.960;4.136;2022-09-03T07:07:13;7.00;;;5.57;;
51270;SDS011;37744;50.960;4.136;2022-09-03T07:09:40;7.13;;;5.97;;
51270;SDS011;37744;50.960;4.136;2022-09-03T07:12:05;7.95;;;6.40;;
51270;SDS011;37744;50.960;4.136;2022-09-03T07:14:31;8.43;;;6.15;;
51270;SDS011;37744;50.960;4.136;2022-09-03T07:16:57;6.68;;;5.65;;
51270;SDS011;37744;50.960;4.136;2022-09-03T07:19:22;8.18;;;6.28;;
51270;SDS011;37744;50.960;4.136;2022-09-03T07:21:48;7.60;;;5.85;;
51270;SDS011;37744;50.960;4.136;2022-09-03T07:24:13;8.48;;;6.35;;
51270;SDS011;37744;50.960;4.136;2022-09-03T07:26:40;7.88;;;5.88;;
51270;SDS011;37744;50.960;4.136;2022-09-03T07:29:10;8.00;;;6.10;;
51270;SDS011;37744;50.960;4.136;2022-09-03T07:31:39;9.05;;;6.10;;
51270;SDS011;37744;50.960;4.136;2022-09-03T07:34:09;9.98;;;6.00;;
51270;SDS011;37744;50.960;4.136;2022-09-03T07:39:07;6.40;;;5.47;;
51270;SDS011;37744;50.960;4.136;2022-09-03T07:41:33;9.25;;;5.97;;
51270;SDS011;37744;50.960;4.136;2022-09-03T07:43:59;9.18;;;6.05;;
51270;SDS011;37744;50.960;4.136;2022-09-03T07:46:30;6.78;;;6.03;;
51270;SDS011;37744;50.960;4.136;2022-09-03T07:48:57;7.25;;;6.15;;
51270;SDS011;37744;50.960;4.136;2022-09-03T07:51:25;9.38;;;6.15;;
51270;SDS011;37744;50.960;4.136;2022-09-03T07:53:53;7.13;;;6.00;;
51270;SDS011;37744;50.960;4.136;2022-09-03T07:56:20;10.88;;;7.32;;
51270;SDS011;37744;50.960;4.136;2022-09-03T07:58:46;9.60;;;6.72;;
51270;SDS011;37744;50.960;4.136;2022-09-03T08:01:12;10.18;;;7.20;;
51270;SDS011;37744;50.960;4.136;2022-09-03T08:03:42;12.40;;;7.60;;
51270;SDS011;37744;50.960;4.136;2022-09-03T08:06:08;10.52;;;7.90;;
51270;SDS011;37744;50.960;4.136;2022-09-03T08:08:35;12.93;;;8.18;;
51270;SDS011;37744;50.960;4.136;2022-09-03T08:11:12;11.90;;;7.38;;
51270;SDS011;37744;50.960;4.136;2022-09-03T08:13:43;10.90;;;7.70;;
51270;SDS011;37744;50.960;4.136;2022-09-03T08:16:16;13.55;;;7.53;;
51270;SDS011;37744;50.960;4.136;2022-09-03T08:18:42;8.32;;;6.75;;
51270;SDS011;37744;50.960;4.136;2022-09-03T08:21:13;9.85;;;7.95;;
51270;SDS011;37744;50.960;4.136;2022-09-03T08:23:47;9.80;;;7.70;;
51270;SDS011;37744;50.960;4.136;2022-09-03T08:26:14;8.93;;;7.75;;
51270;SDS011;37744;50.960;4.136;2022-09-03T08:28:41;6.82;;;6.13;;
51270;SDS011;37744;50.960;4.136;2022-09-03T08:31:17;7.70;;;5.72;;
51270;SDS011;37744;50.960;4.136;2022-09-03T08:33:48;10.07;;;4.68;;
51270;SDS011;37744;50.960;4.136;2022-09-03T08:36:16;4.90;;;4.40;;
51270;SDS011;37744;50.960;4.136;2022-09-03T08:38:44;6.03;;;4.80;;
51270;SDS011;37744;50.960;4.136;2022-09-03T08:41:19;5.45;;;4.65;;
51270;SDS011;37744;50.960;4.136;2022-09-03T08:46:57;4.85;;;4.32;;
51270;SDS011;37744;50.960;4.136;2022-09-03T08:49:44;6.75;;;5.20;;
51270;SDS011;37744;50.960;4.136;2022-09-03T08:52:19;5.63;;;4.40;;
51270;SDS011;37744;50.960;4.136;2022-09-03T08:57:48;7.85;;;5.05;;
51270;SDS011;37744;50.960;4.136;2022-09-03T09:00:17;5.88;;;4.32;;
51270;SDS011;37744;50.960;4.136;2022-09-03T09:05:16;7.43;;;4.55;;
51270;SDS011;37744;50.960;4.136;2022-09-03T09:07:52;7.90;;;4.55;;
51270;SDS011;37744;50.960;4.136;2022-09-03T09:10:44;5.10;;;4.50;;
51270;SDS011;37744;50.960;4.136;2022-09-03T09:21:59;5.90;;;5.13;;
51270;SDS011;37744;50.960;4.136;2022-09-03T09:24:27;11.05;;;5.88;;
51270;SDS011;37744;50.960;4.136;2022-09-03T09:27:18;5.68;;;5.07;;
51270;SDS011;37744;50.960;4.136;2022-09-03T09:29:47;7.75;;;5.47;;
51270;SDS011;37744;50.960;4.136;2022-09-03T09:32:14;7.22;;;5.55;;
51270;SDS011;37744;50.960;4.136;2022-09-03T09:34:42;7.72;;;5.57;;
51270;SDS011;37744;50.960;4.136;2022-09-03T09:37:09;8.82;;;5.22;;
51270;SDS011;37744;50.960;4.136;2022-09-03T09:39:37;10.40;;;5.20;;
51270;SDS011;37744;50.960;4.136;2022-09-03T09:42:07;7.65;;;5.47;;
51270;SDS011;37744;50.960;4.136;2022-09-03T09:44:36;7.00;;;5.60;;
51270;SDS011;37744;50.960;4.136;2022-09-03T09:47:07;7.53;;;5.47;;
51270;SDS011;37744;50.960;4.136;2022-09-03T09:52:08;12.57;;;6.07;;
51270;SDS011;37744;50.960;4.136;2022-09-03T09:54:36;7.03;;;6.30;;
51270;SDS011;37744;50.960;4.136;2022-09-03T09:57:04;6.60;;;5.93;;
51270;SDS011;37744;50.960;4.136;2022-09-03T09:59:32;12.00;;;6.63;;
51270;SDS011;37744;50.960;4.136;2022-09-03T10:02:46;13.00;;;6.43;;
51270;SDS011;37744;50.960;4.136;2022-09-03T10:04:52;7.57;;;6.68;;
51270;SDS011;37744;50.960;4.136;2022-09-03T10:10:04;10.07;;;6.85;;
51270;SDS011;37744;50.960;4.136;2022-09-03T10:12:32;9.50;;;6.28;;
51270;SDS011;37744;50.960;4.136;2022-09-03T10:20:57;7.97;;;6.63;;
51270;SDS011;37744;50.960;4.136;2022-09-03T10:23:50;6.80;;;5.97;;
51270;SDS011;37744;50.960;4.136;2022-09-03T10:26:18;8.77;;;6.38;;
51270;SDS011;37744;50.960;4.136;2022-09-03T10:28:57;9.23;;;6.47;;
51270;SDS011;37744;50.960;4.136;2022-09-03T10:31:34;10.32;;;6.30;;
51270;SDS011;37744;50.960;4.136;2022-09-03T10:37:03;9.38;;;6.72;;
51270;SDS011;37744;50.960;4.136;2022-09-03T10:50:45;7.47;;;5.30;;
51270;SDS011;37744;50.960;4.136;2022-09-03T10:55:59;5.75;;;5.07;;
51270;SDS011;37744;50.960;4.136;2022-09-03T11:01:27;5.65;;;4.95;;
51270;SDS011;37744;50.960;4.136;2022-09-03T11:07:02;6.47;;;5.20;;
51270;SDS011;37744;50.960;4.136;2022-09-03T11:12:08;8.38;;;5.63;;
51270;SDS011;37744;50.960;4.136;2022-09-03T11:14:42;7.60;;;5.20;;
51270;SDS011;37744;50.960;4.136;2022-09-03T11:17:12;6.15;;;5.30;;
51270;SDS011;37744;50.960;4.136;2022-09-03T11:19:45;6.38;;;5.45;;
51270;SDS011;37744;50.960;4.136;2022-09-03T11:22:14;8.85;;;6.40;;
51270;SDS011;37744;50.960;4.136;2022-09-03T11:24:42;8.38;;;6.15;;
51270;SDS011;37744;50.960;4.136;2022-09-03T11:30:02;9.23;;;6.45;;
51270;SDS011;37744;50.960;4.136;2022-09-03T11:32:43;7.00;;;5.60;;
51270;SDS011;37744;50.960;4.136;2022-09-03T11:35:15;6.63;;;5.47;;
51270;SDS011;37744;50.960;4.136;2022-09-03T11:38:02;9.93;;;5.15;;
51270;SDS011;37744;50.960;4.136;2022-09-03T11:40:36;7.53;;;4.47;;
51270;SDS011;37744;50.960;4.136;2022-09-03T11:43:45;7.00;;;5.10;;
51270;SDS011;37744;50.960;4.136;2022-09-03T11:51:01;5.05;;;4.28;;
51270;SDS011;37744;50.960;4.136;2022-09-03T11:53:32;4.75;;;4.10;;
51270;SDS011;37744;50.960;4.136;2022-09-03T11:56:00;6.82;;;3.85;;
51270;SDS011;37744;50.960;4.136;2022-09-03T11:58:40;6.55;;;4.90;;
51270;SDS011;37744;50.960;4.136;2022-09-03T12:01:16;5.25;;;4.50;;
51270;SDS011;37744;50.960;4.136;2022-09-03T12:15:00;4.20;;;3.90;;
51270;SDS011;37744;50.960;4.136;2022-09-03T12:17:34;4.97;;;4.10;;
51270;SDS011;37744;50.960;4.136;2022-09-03T12:20:36;4.20;;;3.80;;
51270;SDS011;37744;50.960;4.136;2022-09-03T12:23:02;3.50;;;3.20;;
51270;SDS011;37744;50.960;4.136;2022-09-03T12:25:27;3.72;;;3.33;;
51270;SDS011;37744;50.960;4.136;2022-09-03T12:27:53;3.80;;;3.38;;
51270;SDS011;37744;50.960;4.136;2022-09-03T12:30:21;5.22;;;3.70;;
51270;SDS011;37744;50.960;4.136;2022-09-03T12:32:48;4.38;;;3.97;;
51270;SDS011;37744;50.960;4.136;2022-09-03T12:35:19;5.13;;;4.63;;
51270;SDS011;37744;50.960;4.136;2022-09-03T12:37:47;4.82;;;3.72;;
51270;SDS011;37744;50.960;4.136;2022-09-03T12:40:34;4.40;;;4.05;;
51270;SDS011;37744;50.960;4.136;2022-09-03T12:43:14;4.72;;;4.00;;
51270;SDS011;37744;50.960;4.136;2022-09-03T12:45:45;4.05;;;3.65;;
51270;SDS011;37744;50.960;4.136;2022-09-03T12:48:12;4.40;;;4.00;;
51270;SDS011;37744;50.960;4.136;2022-09-03T12:50:43;4.68;;;4.10;;
51270;SDS011;37744;50.960;4.136;2022-09-03T12:53:10;3.60;;;3.30;;
51270;SDS011;37744;50.960;4.136;2022-09-03T12:55:43;3.70;;;3.40;;
51270;SDS011;37744;50.960;4.136;2022-09-03T13:01:06;3.10;;;2.90;;
51270;SDS011;37744;50.960;4.136;2022-09-03T13:03:49;4.07;;;3.60;;
51270;SDS011;37744;50.960;4.136;2022-09-03T13:06:22;3.55;;;3.17;;
51270;SDS011;37744;50.960;4.136;2022-09-03T13:09:03;4.95;;;3.50;;
51270;SDS011;37744;50.960;4.136;2022-09-03T13:11:32;7.32;;;3.92;;
51270;SDS011;37744;50.960;4.136;2022-09-03T13:19:14;3.40;;;3.10;;
51270;SDS011;37744;50.960;4.136;2022-09-03T13:30:21;3.88;;;3.58;;
51270;SDS011;37744;50.960;4.136;2022-09-03T13:35:39;3.58;;;3.03;;
51270;SDS011;37744;50.960;4.136;2022-09-03T13:43:36;2.30;;;2.00;;
51270;SDS011;37744;50.960;4.136;2022-09-03T13:49:46;3.10;;;2.03;;
51270;SDS011;37744;50.960;4.136;2022-09-03T13:52:38;2.25;;;2.05;;
51270;SDS011;37744;50.960;4.136;2022-09-03T13:55:12;2.90;;;2.30;;
51270;SDS011;37744;50.960;4.136;2022-09-03T13:57:52;3.75;;;2.08;;
51270;SDS011;37744;50.960;4.136;2022-09-03T14:00:30;2.30;;;2.20;;
51270;SDS011;37744;50.960;4.136;2022-09-03T14:08:25;2.80;;;2.60;;
51270;SDS011;37744;50.960;4.136;2022-09-03T14:13:47;2.67;;;2.20;;
51270;SDS011;37744;50.960;4.136;2022-09-03T14:16:37;4.20;;;2.60;;
51270;SDS011;37744;50.960;4.136;2022-09-03T14:19:18;2.78;;;2.58;;
51270;SDS011;37744;50.960;4.136;2022-09-03T14:22:10;2.72;;;2.53;;
51270;SDS011;37744;50.960;4.136;2022-09-03T14:24:59;4.90;;;2.97;;
51270;SDS011;37744;50.960;4.136;2022-09-03T14:27:30;3.42;;;2.70;;
51270;SDS011;37744;50.960;4.136;2022-09-03T14:40:21;2.80;;;2.60;;
51270;SDS011;37744;50.960;4.136;2022-09-03T14:48:27;5.82;;;2.95;;
51270;SDS011;37744;50.960;4.136;2022-09-03T14:56:33;5.47;;;3.10;;
51270;SDS011;37744;50.960;4.136;2022-09-03T15:01:37;3.65;;;3.10;;
51270;SDS011;37744;50.960;4.136;2022-09-03T15:06:49;3.28;;;2.80;;
51270;SDS011;37744;50.960;4.136;2022-09-03T15:09:53;3.08;;;2.50;;
51270;SDS011;37744;50.960;4.136;2022-09-03T15:12:36;3.83;;;2.72;;
51270;SDS011;37744;50.960;4.136;2022-09-03T15:20:21;3.40;;;2.53;;
51270;SDS011;37744;50.960;4.136;2022-09-03T15:23:04;3.05;;;2.30;;
51270;SDS011;37744;50.960;4.136;2022-09-03T15:36:56;2.10;;;1.95;;
51270;SDS011;37744;50.960;4.136;2022-09-03T15:39:30;2.05;;;1.95;;
51270;SDS011;37744;50.960;4.136;2022-09-03T15:41:59;2.13;;;1.77;;
51270;SDS011;37744;50.960;4.136;2022-09-03T15:44:49;1.80;;;1.70;;
51270;SDS011;37744;50.960;4.136;2022-09-03T15:50:57;2.75;;;1.90;;
51270;SDS011;37744;50.960;4.136;2022-09-03T15:53:05;1.95;;;1.80;;
51270;SDS011;37744;50.960;4.136;2022-09-03T15:56:42;2.72;;;2.00;;
51270;SDS011;37744;50.960;4.136;2022-09-03T15:59:00;1.80;;;1.70;;
51270;SDS011;37744;50.960;4.136;2022-09-03T16:01:34;1.63;;;1.48;;
51270;SDS011;37744;50.960;4.136;2022-09-03T16:09:18;1.60;;;1.50;;
51270;SDS011;37744;50.960;4.136;2022-09-03T16:11:51;1.42;;;1.40;;
51270;SDS011;37744;50.960;4.136;2022-09-03T16:19:55;2.13;;;1.90;;
51270;SDS011;37744;50.960;4.136;2022-09-03T16:22:31;2.67;;;1.67;;
51270;SDS011;37744;50.960;4.136;2022-09-03T16:25:33;3.80;;;2.08;;
51270;SDS011;37744;50.960;4.136;2022-09-03T16:28:13;1.80;;;1.70;;
51270;SDS011;37744;50.960;4.136;2022-09-03T16:36:05;1.92;;;1.83;;
51270;SDS011;37744;50.960;4.136;2022-09-03T16:47:17;2.28;;;1.70;;
51270;SDS011;37744;50.960;4.136;2022-09-03T17:09:02;2.05;;;1.90;;
51270;SDS011;37744;50.960;4.136;2022-09-03T17:17:23;2.85;;;1.88;;
51270;SDS011;37744;50.960;4.136;2022-09-03T17:31:47;2.78;;;2.28;;
51270;SDS011;37744;50.960;4.136;2022-09-03T17:34:25;1.95;;;1.85;;
51270;SDS011;37744;50.960;4.136;2022-09-03T17:42:29;2.80;;;2.50;;
51270;SDS011;37744;50.960;4.136;2022-09-03T17:47:57;4.10;;;2.20;;
51270;SDS011;37744;50.960;4.136;2022-09-03T17:53:52;3.80;;;2.30;;
51270;SDS011;37744;50.960;4.136;2022-09-03T17:56:25;3.10;;;2.40;;
51270;SDS011;37744;50.960;4.136;2022-09-03T17:59:03;2.83;;;2.20;;
51270;SDS011;37744;50.960;4.136;2022-09-03T18:01:35;2.78;;;2.17;;
51270;SDS011;37744;50.960;4.136;2022-09-03T18:04:27;3.22;;;2.15;;
51270;SDS011;37744;50.960;4.136;2022-09-03T18:07:03;2.75;;;2.40;;
51270;SDS011;37744;50.960;4.136;2022-09-03T18:09:37;2.88;;;2.55;;
51270;SDS011;37744;50.960;4.136;2022-09-03T18:12:08;3.38;;;2.22;;
51270;SDS011;37744;50.960;4.136;2022-09-03T18:14:42;4.55;;;2.80;;
51270;SDS011;37744;50.960;4.136;2022-09-03T18:25:45;4.47;;;2.97;;
51270;SDS011;37744;50.960;4.136;2022-09-03T18:28:37;2.97;;;2.67;;
51270;SDS011;37744;50.960;4.136;2022-09-03T18:31:25;4.70;;;3.30;;
51270;SDS011;37744;50.960;4.136;2022-09-03T18:34:09;3.20;;;2.90;;
51270;SDS011;37744;50.960;4.136;2022-09-03T18:36:56;3.35;;;3.10;;
51270;SDS011;37744;50.960;4.136;2022-09-03T18:39:43;3.60;;;3.00;;
51270;SDS011;37744;50.960;4.136;2022-09-03T18:45:49;4.05;;;3.40;;
51270;SDS011;37744;50.960;4.136;2022-09-03T18:48:46;4.28;;;3.53;;
51270;SDS011;37744;50.960;4.136;2022-09-03T18:54:31;3.50;;;3.20;;
51270;SDS011;37744;50.960;4.136;2022-09-03T19:00:43;3.05;;;2.45;;
51270;SDS011;37744;50.960;4.136;2022-09-03T19:03:44;3.97;;;3.20;;
51270;SDS011;37744;50.960;4.136;2022-09-03T19:06:51;3.03;;;2.78;;
51270;SDS011;37744;50.960;4.136;2022-09-03T19:09:47;3.75;;;3.10;;
51270;SDS011;37744;50.960;4.136;2022-09-03T19:16:29;2.85;;;2.63;;
51270;SDS011;37744;50.960;4.136;2022-09-03T19:21:56;2.60;;;2.40;;
51270;SDS011;37744;50.960;4.136;2022-09-03T19:24:47;3.88;;;2.42;;
51270;SDS011;37744;50.960;4.136;2022-09-03T19:28:37;2.60;;;2.40;;
51270;SDS011;37744;50.960;4.136;2022-09-03T19:30:56;3.35;;;2.75;;
51270;SDS011;37744;50.960;4.136;2022-09-03T19:37:26;3.05;;;2.70;;
51270;SDS011;37744;50.960;4.136;2022-09-03T19:52:34;3.40;;;3.10;;
51270;SDS011;37744;50.960;4.136;2022-09-03T19:55:34;4.18;;;2.90;;
51270;SDS011;37744;50.960;4.136;2022-09-03T19:58:23;3.80;;;3.05;;
51270;SDS011;37744;50.960;4.136;2022-09-03T20:01:11;2.90;;;2.70;;
51270;SDS011;37744;50.960;4.136;2022-09-03T20:03:57;3.22;;;2.92;;
51270;SDS011;37744;50.960;4.136;2022-09-03T20:06:43;3.70;;;3.00;;
51270;SDS011;37744;50.960;4.136;2022-09-03T20:09:33;2.85;;;2.65;;
51270;SDS011;37744;50.960;4.136;2022-09-03T20:12:24;3.42;;;2.88;;
51270;SDS011;37744;50.960;4.136;2022-09-03T20:14:55;5.68;;;3.35;;
51270;SDS011;37744;50.960;4.136;2022-09-03T20:17:29;3.88;;;3.40;;
51270;SDS011;37744;50.960;4.136;2022-09-03T20:20:09;4.72;;;3.35;;
51270;SDS011;37744;50.960;4.136;2022-09-03T20:22:44;3.17;;;2.72;;
51270;SDS011;37744;50.960;4.136;2022-09-03T20:38:56;3.25;;;3.00;;
51270;SDS011;37744;50.960;4.136;2022-09-03T20:47:08;3.15;;;2.80;;
51270;SDS011;37744;50.960;4.136;2022-09-03T21:11:13;3.35;;;2.92;;
51270;SDS011;37744;50.960;4.136;2022-09-03T21:13:49;3.10;;;2.80;;
51270;SDS011;37744;50.960;4.136;2022-09-03T21:16:31;3.63;;;3.00;;
51270;SDS011;37744;50.960;4.136;2022-09-03T21:19:10;4.32;;;2.70;;
51270;SDS011;37744;50.960;4.136;2022-09-03T21:24:19;2.70;;;2.50;;
51270;SDS011;37744;50.960;4.136;2022-09-03T21:26:49;2.63;;;2.33;;
51270;SDS011;37744;50.960;4.136;2022-09-03T21:29:23;3.10;;;2.20;;
51270;SDS011;37744;50.960;4.136;2022-09-03T21:34:39;5.22;;;2.70;;
51270;SDS011;37744;50.960;4.136;2022-09-03T21:37:27;3.43;;;2.67;;
51270;SDS011;37744;50.960;4.136;2022-09-03T21:39:58;6.30;;;3.25;;
51270;SDS011;37744;50.960;4.136;2022-09-03T21:42:31;4.75;;;3.35;;